createdAt,value
2022-09-14T00:00:36.476Z,43.22
2022-09-14T00:01:40.940Z,10.43
2022-09-14T00:02:43.365Z,12.25
2022-09-14T00:03:45.994Z,43.35
2022-09-14T00:04:48.363Z,8.40
2022-09-14T00:05:50.743Z,6.60
2022-09-14T00:06:53.010Z,8.60
2022-09-14T00:07:55.183Z,11.65
2022-09-14T00:09:00.653Z,209.45
2022-09-14T00:10:02.943Z,464.70
2022-09-14T00:11:13.862Z,402.17
2022-09-14T00:12:16.162Z,124.22
2022-09-14T00:13:18.447Z,356.25
2022-09-14T00:14:20.906Z,110.38
2022-09-14T00:15:23.146Z,23.77
2022-09-14T00:16:29.465Z,7.90
2022-09-14T00:17:31.637Z,9.55
2022-09-14T00:18:35.163Z,9.45
2022-09-14T00:19:37.488Z,5.22
2022-09-14T00:20:39.715Z,6.85
2022-09-14T00:21:42.567Z,7.63
2022-09-14T00:22:44.868Z,6.20
2022-09-14T00:23:47.243Z,7.10
2022-09-14T00:24:49.461Z,7.25
2022-09-14T00:25:51.698Z,9.32
2022-09-14T00:26:54.060Z,6.18
2022-09-14T00:27:57.396Z,8.18
2022-09-14T00:29:04.458Z,5.75
2022-09-14T00:30:07.308Z,21.75
2022-09-14T00:31:10.516Z,7.88
2022-09-14T00:32:12.777Z,4.53
2022-09-14T00:33:15.129Z,5.70
2022-09-14T00:34:17.917Z,4.57
2022-09-14T00:35:20.165Z,8.82
2022-09-14T00:36:27.630Z,4.70
2022-09-14T00:37:29.851Z,7.00
2022-09-14T00:38:32.419Z,4.00
2022-09-14T00:39:34.774Z,10.48
2022-09-14T00:40:37.216Z,7.15
2022-09-14T00:41:42.156Z,7.45
2022-09-14T00:42:44.426Z,6.25
2022-09-14T00:43:52.152Z,6.88
2022-09-14T00:44:59.948Z,6.70
2022-09-14T00:46:05.323Z,7.85
2022-09-14T00:47:08.006Z,4.43
2022-09-14T00:48:10.348Z,8.00
2022-09-14T00:49:34.342Z,9.40
2022-09-14T00:50:36.893Z,10.88
2022-09-14T00:51:45.475Z,8.02
2022-09-14T00:52:49.474Z,7.82
2022-09-14T00:53:52.128Z,10.13
2022-09-14T00:54:57.388Z,5.32
2022-09-14T00:55:59.675Z,11.30
2022-09-14T00:57:03.855Z,8.20
2022-09-14T00:58:06.191Z,6.75
2022-09-14T00:59:22.008Z,9.00
2022-09-14T01:00:26.865Z,7.85
2022-09-14T01:01:29.412Z,6.57
2022-09-14T01:02:33.690Z,6.63
2022-09-14T01:03:36.624Z,6.93
2022-09-14T01:04:38.934Z,7.30
2022-09-14T01:05:50.743Z,6.28
2022-09-14T01:07:08.537Z,5.35
2022-09-14T01:08:16.543Z,6.63
2022-09-14T01:09:38.147Z,8.40
2022-09-14T01:10:48.536Z,4.25
2022-09-14T01:11:56.389Z,7.68
2022-09-14T01:13:01.270Z,5.15
2022-09-14T01:14:14.506Z,8.05
2022-09-14T01:15:33.368Z,8.90
2022-09-14T01:17:07.913Z,6.97
2022-09-14T01:18:16.244Z,5.95
2022-09-14T01:19:33.453Z,6.75
2022-09-14T01:20:41.155Z,6.10
2022-09-14T01:21:44.926Z,5.53
2022-09-14T01:22:55.785Z,8.85
2022-09-14T01:23:59.454Z,6.30
2022-09-14T01:25:34.056Z,30.67
2022-09-14T01:27:10.111Z,42.65
2022-09-14T01:28:50.323Z,6.35
2022-09-14T01:30:01.086Z,8.32
2022-09-14T01:31:09.157Z,13.02
2022-09-14T01:32:19.976Z,15.32
2022-09-14T01:33:28.033Z,39.88
2022-09-14T01:34:49.987Z,24.27
2022-09-14T01:36:01.973Z,10.98
2022-09-14T01:37:21.821Z,13.77
2022-09-14T01:38:31.964Z,8.15
2022-09-14T01:39:35.999Z,7.05
2022-09-14T01:40:47.972Z,4.47
2022-09-14T01:41:52.955Z,10.05
2022-09-14T01:43:00.828Z,9.00
2022-09-14T01:44:11.790Z,7.43
2022-09-14T01:45:18.931Z,9.80
2022-09-14T01:46:26.411Z,9.65
2022-09-14T01:47:36.508Z,8.85
2022-09-14T01:48:51.212Z,12.63
2022-09-14T01:49:59.108Z,26.95
2022-09-14T01:51:05.855Z,20.55
2022-09-14T01:52:20.832Z,17.20
2022-09-14T01:53:30.943Z,13.95
2022-09-14T01:54:39.423Z,11.57
2022-09-14T01:55:49.012Z,12.35
2022-09-14T01:56:55.704Z,12.45
2022-09-14T01:58:11.141Z,19.98
2022-09-14T01:59:27.513Z,30.55
2022-09-14T02:00:30.842Z,18.55
2022-09-14T02:01:41.264Z,17.63
2022-09-14T02:02:52.811Z,12.98
2022-09-14T02:04:02.587Z,62.42
2022-09-14T02:05:15.836Z,43.28
2022-09-14T02:06:28.906Z,12.32
2022-09-14T02:07:31.738Z,795.38
2022-09-14T02:08:34.846Z,476.73
2022-09-14T02:09:38.126Z,79.32
2022-09-14T02:10:40.563Z,22.02
2022-09-14T02:11:42.960Z,11.18
2022-09-14T02:12:46.033Z,9.18
2022-09-14T02:13:48.313Z,9.75
2022-09-14T02:14:52.613Z,11.48
2022-09-14T02:15:55.030Z,10.48
2022-09-14T02:16:57.743Z,10.25
2022-09-14T02:18:00.070Z,21.55
2022-09-14T02:19:02.756Z,14.75
2022-09-14T02:20:08.168Z,28.35
2022-09-14T02:21:19.824Z,11.15
2022-09-14T02:22:22.621Z,9.32
2022-09-14T02:23:25.130Z,9.30
2022-09-14T02:24:28.625Z,8.48
2022-09-14T02:25:31.033Z,7.43
2022-09-14T02:26:33.743Z,11.93
2022-09-14T02:27:35.967Z,10.35
2022-09-14T02:28:38.248Z,13.75
2022-09-14T02:29:40.508Z,11.88
2022-09-14T02:30:52.817Z,9.43
2022-09-14T02:32:04.497Z,12.57
2022-09-14T02:33:21.650Z,13.57
2022-09-14T02:34:32.470Z,12.32
2022-09-14T02:35:44.652Z,16.40
2022-09-14T02:36:55.530Z,12.60
2022-09-14T02:38:21.482Z,8.75
2022-09-14T02:39:40.527Z,12.73
2022-09-14T02:41:12.015Z,12.45
2022-09-14T02:42:21.385Z,12.35
2022-09-14T02:43:48.029Z,11.35
2022-09-14T02:45:11.123Z,9.80
2022-09-14T02:46:13.404Z,11.13
2022-09-14T02:47:25.621Z,11.70
2022-09-14T02:48:49.419Z,19.80
2022-09-14T02:50:03.192Z,12.77
2022-09-14T02:51:26.833Z,13.63
2022-09-14T02:52:45.569Z,13.98
2022-09-14T02:53:59.474Z,12.02
2022-09-14T02:55:14.816Z,12.88
2022-09-14T02:56:19.298Z,15.57
2022-09-14T02:57:21.506Z,13.38
2022-09-14T02:58:23.729Z,12.68
2022-09-14T02:59:26.173Z,14.73
2022-09-14T03:00:29.439Z,14.77
2022-09-14T03:01:31.879Z,14.88
2022-09-14T03:02:34.217Z,12.77
2022-09-14T03:03:36.472Z,17.45
2022-09-14T03:04:38.710Z,14.73
2022-09-14T03:05:41.302Z,9.98
2022-09-14T03:06:43.540Z,18.05
2022-09-14T03:07:45.738Z,13.93
2022-09-14T03:08:49.456Z,29.77
2022-09-14T03:09:51.721Z,14.38
2022-09-14T03:10:54.347Z,22.15
2022-09-14T03:11:56.637Z,19.17
2022-09-14T03:12:59.654Z,21.98
2022-09-14T03:14:01.918Z,21.13
2022-09-14T03:15:05.367Z,13.65
2022-09-14T03:16:15.813Z,14.45
2022-09-14T03:17:18.098Z,18.83
2022-09-14T03:18:20.622Z,15.90
2022-09-14T03:19:22.935Z,14.07
2022-09-14T03:20:27.794Z,21.52
2022-09-14T03:21:29.947Z,12.82
2022-09-14T03:22:32.976Z,16.90
2022-09-14T03:23:40.346Z,32.78
2022-09-14T03:24:42.550Z,10.73
2022-09-14T03:25:44.903Z,66.75
2022-09-14T03:26:47.267Z,22.60
2022-09-14T03:27:56.749Z,11.32
2022-09-14T03:28:59.479Z,17.50
2022-09-14T03:30:01.903Z,31.52
2022-09-14T03:31:06.239Z,13.13
2022-09-14T03:32:10.847Z,13.38
2022-09-14T03:33:15.311Z,14.93
2022-09-14T03:34:17.539Z,13.80
2022-09-14T03:35:20.165Z,12.43
2022-09-14T03:36:23.298Z,28.75
2022-09-14T03:37:25.993Z,21.75
2022-09-14T03:38:30.021Z,34.88
2022-09-14T03:39:32.211Z,18.40
2022-09-14T03:40:34.606Z,13.93
2022-09-14T03:41:36.950Z,14.60
2022-09-14T03:42:47.874Z,15.73
2022-09-14T03:43:50.236Z,15.82
2022-09-14T03:44:52.503Z,15.23
2022-09-14T03:45:54.748Z,37.85
2022-09-14T03:46:57.095Z,30.05
2022-09-14T03:47:59.373Z,16.95
2022-09-14T03:49:01.687Z,35.72
2022-09-14T03:50:04.313Z,22.02
2022-09-14T03:51:08.493Z,19.55
2022-09-14T03:52:10.693Z,15.23
2022-09-14T03:53:13.022Z,13.25
2022-09-14T03:54:15.238Z,22.00
2022-09-14T03:55:19.197Z,16.95
2022-09-14T03:56:23.076Z,19.60
2022-09-14T03:57:25.397Z,17.30
2022-09-14T03:58:31.710Z,10.82
2022-09-14T03:59:34.724Z,11.07
2022-09-14T04:00:37.255Z,9.07
2022-09-14T04:01:39.560Z,11.70
2022-09-14T04:02:42.053Z,7.82
2022-09-14T04:03:45.356Z,11.90
2022-09-14T04:04:48.220Z,14.48
2022-09-14T04:05:56.839Z,13.75
2022-09-14T04:06:59.162Z,13.20
2022-09-14T04:08:01.894Z,15.13
2022-09-14T04:09:04.322Z,13.02
2022-09-14T04:10:07.656Z,12.23
2022-09-14T04:11:15.410Z,12.45
2022-09-14T04:12:17.750Z,79.88
2022-09-14T04:13:20.058Z,179.15
2022-09-14T04:14:23.542Z,73.05
2022-09-14T04:15:25.975Z,30.05
2022-09-14T04:16:29.142Z,215.25
2022-09-14T04:17:31.471Z,70.10
2022-09-14T04:18:34.032Z,34.72
2022-09-14T04:19:39.099Z,22.90
2022-09-14T04:20:41.642Z,221.77
2022-09-14T04:21:44.039Z,136.98
2022-09-14T04:22:46.550Z,59.08
2022-09-14T04:24:13.318Z,34.63
2022-09-14T04:25:14.522Z,40.47
2022-09-14T04:26:19.386Z,22.27
2022-09-14T04:27:21.641Z,78.43
2022-09-14T04:28:24.662Z,47.15
2022-09-14T04:29:26.891Z,61.60
2022-09-14T04:30:29.184Z,113.15
2022-09-14T04:31:33.017Z,60.55
2022-09-14T04:32:35.409Z,126.00
2022-09-14T04:33:39.447Z,39.10
2022-09-14T04:34:41.776Z,62.30
2022-09-14T04:35:44.029Z,94.18
2022-09-14T04:36:46.302Z,60.80
2022-09-14T04:37:48.582Z,72.82
2022-09-14T04:38:53.945Z,309.88
2022-09-14T04:39:56.712Z,62.75
2022-09-14T04:41:00.090Z,142.85
2022-09-14T04:42:02.814Z,372.42
2022-09-14T04:43:05.384Z,738.20
2022-09-14T04:44:08.001Z,460.92
2022-09-14T04:45:10.855Z,106.75
2022-09-14T04:46:16.059Z,536.72
2022-09-14T04:47:18.423Z,610.13
2022-09-14T04:48:20.844Z,199.27
2022-09-14T04:49:23.154Z,42.28
2022-09-14T04:50:25.321Z,20.88
2022-09-14T04:51:30.312Z,36.00
2022-09-14T04:52:33.138Z,25.45
2022-09-14T04:53:37.561Z,35.83
2022-09-14T04:54:40.025Z,40.70
2022-09-14T04:55:42.415Z,47.88
2022-09-14T04:56:45.300Z,50.75
2022-09-14T04:57:47.983Z,54.58
2022-09-14T04:58:53.078Z,27.27
2022-09-14T04:59:55.584Z,44.67
2022-09-14T05:01:06.725Z,64.72
2022-09-14T05:02:09.488Z,42.05
2022-09-14T05:03:12.724Z,68.05
2022-09-14T05:04:16.279Z,73.32
2022-09-14T05:05:18.747Z,23.02
2022-09-14T05:06:24.664Z,41.65
2022-09-14T05:07:27.681Z,95.32
2022-09-14T05:08:30.539Z,151.75
2022-09-14T05:09:33.363Z,85.05
2022-09-14T05:10:36.073Z,128.32
2022-09-14T05:11:38.608Z,103.45
2022-09-14T05:12:43.413Z,250.10
2022-09-14T05:13:49.677Z,121.60
2022-09-14T05:14:52.849Z,55.38
2022-09-14T05:15:55.789Z,69.15
2022-09-14T05:17:01.169Z,128.30
2022-09-14T05:18:03.580Z,54.42
2022-09-14T05:19:08.376Z,51.30
2022-09-14T05:20:10.620Z,135.10
2022-09-14T05:21:18.691Z,76.40
2022-09-14T05:22:22.614Z,36.55
2022-09-14T05:23:25.225Z,32.97
2022-09-14T05:24:27.665Z,15.55
2022-09-14T05:25:30.066Z,19.20
2022-09-14T05:26:32.710Z,88.93
2022-09-14T05:27:35.114Z,19.65
2022-09-14T05:28:38.693Z,38.63
2022-09-14T05:29:41.313Z,65.72
2022-09-14T05:30:43.729Z,66.00
2022-09-14T05:31:46.767Z,16.70
2022-09-14T05:32:49.210Z,50.70
2022-09-14T05:33:52.316Z,38.58
2022-09-14T05:34:54.679Z,33.47
2022-09-14T05:36:01.799Z,22.92
2022-09-14T05:37:04.104Z,32.95
2022-09-14T05:38:06.411Z,30.98
2022-09-14T05:39:09.655Z,44.50
2022-09-14T05:40:12.096Z,34.83
2022-09-14T05:41:15.740Z,28.73
2022-09-14T05:42:18.076Z,37.05
2022-09-14T05:43:22.579Z,38.17
2022-09-14T05:44:24.935Z,34.08
2022-09-14T05:45:27.406Z,52.42
2022-09-14T05:46:29.829Z,32.20
2022-09-14T05:47:34.907Z,37.83
2022-09-14T05:48:41.480Z,63.13
2022-09-14T05:49:43.908Z,15.68
2022-09-14T05:50:47.212Z,22.13
2022-09-14T05:51:49.432Z,18.52
2022-09-14T05:52:51.710Z,17.55
2022-09-14T05:53:56.992Z,47.28
2022-09-14T05:54:59.503Z,177.05
2022-09-14T05:56:02.819Z,19.45
2022-09-14T05:57:05.133Z,34.88
2022-09-14T05:58:07.364Z,383.15
2022-09-14T05:59:10.777Z,39.90
2022-09-14T06:00:14.259Z,21.38
2022-09-14T06:01:22.243Z,258.27
2022-09-14T06:02:24.842Z,64.18
2022-09-14T06:03:27.391Z,22.92
2022-09-14T06:04:29.601Z,45.60
2022-09-14T06:05:31.967Z,131.82
2022-09-14T06:06:34.345Z,29.00
2022-09-14T06:07:36.564Z,35.30
2022-09-14T06:08:39.571Z,19.58
2022-09-14T06:09:42.554Z,49.55
2022-09-14T06:10:44.858Z,55.17
2022-09-14T06:11:47.206Z,26.38
2022-09-14T06:12:53.450Z,11.52
2022-09-14T06:13:57.607Z,68.13
2022-09-14T06:15:00.154Z,44.10
2022-09-14T06:16:07.516Z,51.08
2022-09-14T06:17:09.754Z,46.10
2022-09-14T06:18:12.008Z,18.48
2022-09-14T06:19:15.257Z,11.57
2022-09-14T06:20:18.747Z,12.40
2022-09-14T06:21:21.085Z,16.40
2022-09-14T06:22:23.563Z,20.60
2022-09-14T06:23:27.750Z,14.50
2022-09-14T06:24:29.982Z,12.30
2022-09-14T06:25:32.370Z,12.15
2022-09-14T06:26:34.619Z,16.10
2022-09-14T06:27:37.676Z,17.50
2022-09-14T06:28:40.410Z,19.02
2022-09-14T06:29:42.773Z,18.20
2022-09-14T06:30:45.023Z,18.27
2022-09-14T06:31:47.251Z,17.67
2022-09-14T06:32:49.535Z,16.33
2022-09-14T06:33:52.452Z,18.90
2022-09-14T06:34:54.765Z,15.57
2022-09-14T06:36:01.855Z,21.63
2022-09-14T06:37:04.188Z,20.23
2022-09-14T06:38:06.721Z,21.85
2022-09-14T06:39:09.532Z,20.73
2022-09-14T06:40:12.353Z,15.70
2022-09-14T06:41:18.580Z,22.60
2022-09-14T06:42:21.241Z,16.65
2022-09-14T06:43:30.767Z,17.25
2022-09-14T06:44:33.591Z,16.27
2022-09-14T06:45:36.964Z,17.67
2022-09-14T06:46:39.675Z,21.05
2022-09-14T06:47:42.439Z,25.02
2022-09-14T06:48:50.573Z,20.92
2022-09-14T06:49:52.869Z,19.35
2022-09-14T06:50:55.493Z,20.10
2022-09-14T06:51:57.841Z,20.60
2022-09-14T06:53:00.378Z,20.98
2022-09-14T06:54:04.037Z,22.33
2022-09-14T06:55:06.721Z,18.58
2022-09-14T06:56:09.597Z,22.25
2022-09-14T06:57:11.993Z,21.25
2022-09-14T06:58:14.575Z,24.77
2022-09-14T06:59:17.925Z,22.70
2022-09-14T07:00:20.717Z,23.60
2022-09-14T07:01:23.699Z,18.77
2022-09-14T07:02:26.412Z,20.38
2022-09-14T07:03:28.824Z,19.70
2022-09-14T07:04:31.267Z,23.45
2022-09-14T07:05:34.584Z,24.92
2022-09-14T07:06:48.747Z,21.25
2022-09-14T07:07:53.123Z,24.73
2022-09-14T07:08:56.101Z,27.35
2022-09-14T07:09:58.482Z,29.88
2022-09-14T07:11:01.114Z,21.10
2022-09-14T07:12:04.093Z,26.23
2022-09-14T07:13:06.578Z,24.77
2022-09-14T07:14:10.061Z,23.17
2022-09-14T07:15:12.417Z,24.85
2022-09-14T07:16:15.797Z,25.15
2022-09-14T07:17:18.334Z,24.63
2022-09-14T07:18:21.679Z,26.08
2022-09-14T07:19:24.054Z,30.50
2022-09-14T07:20:26.408Z,26.10
2022-09-14T07:21:30.949Z,25.23
2022-09-14T07:22:34.226Z,24.40
2022-09-14T07:23:39.435Z,30.38
2022-09-14T07:24:41.869Z,23.73
2022-09-14T07:25:44.280Z,24.63
2022-09-14T07:26:46.841Z,30.67
2022-09-14T07:27:49.165Z,28.63
2022-09-14T07:28:55.767Z,30.90
2022-09-14T07:29:58.138Z,25.30
2022-09-14T07:31:01.339Z,28.85
2022-09-14T07:32:03.832Z,27.15
2022-09-14T07:33:06.199Z,29.90
2022-09-14T07:34:09.398Z,29.83
2022-09-14T07:35:11.751Z,26.52
2022-09-14T07:36:14.828Z,26.23
2022-09-14T07:37:17.195Z,26.15
2022-09-14T07:38:35.627Z,26.13
2022-09-14T07:39:43.207Z,25.55
2022-09-14T07:40:46.239Z,29.02
2022-09-14T07:41:49.018Z,36.40
2022-09-14T07:42:57.656Z,28.13
2022-09-14T07:44:03.103Z,31.13
2022-09-14T07:45:06.161Z,37.80
2022-09-14T07:46:08.595Z,36.65
2022-09-14T07:47:10.999Z,38.83
2022-09-14T07:48:13.306Z,28.38
2022-09-14T07:49:17.090Z,31.60
2022-09-14T07:50:19.501Z,26.98
2022-09-14T07:51:22.251Z,33.33
2022-09-14T07:52:24.883Z,37.33
2022-09-14T07:53:27.369Z,26.73
2022-09-14T07:54:29.789Z,25.27
2022-09-14T07:55:32.526Z,27.92
2022-09-14T07:56:35.274Z,26.35
2022-09-14T07:57:55.019Z,24.60
2022-09-14T07:59:17.637Z,18.73
2022-09-14T08:00:23.073Z,21.35
2022-09-14T08:01:26.019Z,23.48
2022-09-14T08:02:29.208Z,26.67
2022-09-14T08:03:31.682Z,27.02
2022-09-14T08:04:39.271Z,25.80
2022-09-14T08:05:42.142Z,20.08
2022-09-14T08:06:44.595Z,20.15
2022-09-14T08:07:46.934Z,23.17
2022-09-14T08:08:52.232Z,19.80
2022-09-14T08:09:54.495Z,23.55
2022-09-14T08:11:04.188Z,23.10
2022-09-14T08:12:06.771Z,20.55
2022-09-14T08:13:09.102Z,20.67
2022-09-14T08:14:12.349Z,20.80
2022-09-14T08:15:14.778Z,23.38
2022-09-14T08:16:21.111Z,20.00
2022-09-14T08:17:24.115Z,22.23
2022-09-14T08:18:27.280Z,18.20
2022-09-14T08:19:30.248Z,19.23
2022-09-14T08:20:32.722Z,20.73
2022-09-14T08:21:35.799Z,17.17
2022-09-14T08:22:39.460Z,17.85
2022-09-14T08:23:43.005Z,19.35
2022-09-14T08:24:45.334Z,17.77
2022-09-14T08:25:47.542Z,22.55
2022-09-14T08:26:49.962Z,21.23
2022-09-14T08:27:52.246Z,16.23
2022-09-14T08:28:55.977Z,15.07
2022-09-14T08:29:58.296Z,13.90
2022-09-14T08:31:06.160Z,18.10
2022-09-14T08:32:11.622Z,13.82
2022-09-14T08:33:13.990Z,15.00
2022-09-14T08:34:17.301Z,16.80
2022-09-14T08:35:30.922Z,16.58
2022-09-14T08:36:43.175Z,15.57
2022-09-14T08:37:45.409Z,18.90
2022-09-14T08:38:47.995Z,22.83
2022-09-14T08:39:51.780Z,20.77
2022-09-14T08:40:54.489Z,15.75
2022-09-14T08:42:00.123Z,12.73
2022-09-14T08:43:03.971Z,15.13
2022-09-14T08:44:31.235Z,15.82
2022-09-14T08:45:33.635Z,13.70
2022-09-14T08:46:40.721Z,14.98
2022-09-14T08:47:43.596Z,17.90
2022-09-14T08:48:48.795Z,13.65
2022-09-14T08:50:18.344Z,12.52
2022-09-14T08:51:20.660Z,14.25
2022-09-14T08:52:28.328Z,12.05
2022-09-14T08:53:33.048Z,13.23
2022-09-14T08:54:37.353Z,14.43
2022-09-14T08:55:46.616Z,9.18
2022-09-14T08:57:12.276Z,13.48
2022-09-14T08:58:29.449Z,10.68
2022-09-14T08:59:46.702Z,12.75
2022-09-14T09:01:13.254Z,16.88
2022-09-14T09:02:33.617Z,17.52
2022-09-14T09:03:58.947Z,13.13
2022-09-14T09:05:20.102Z,10.38
2022-09-14T09:06:27.972Z,8.65
2022-09-14T09:08:13.249Z,12.00
2022-09-14T09:09:43.168Z,10.32
2022-09-14T09:10:47.376Z,8.00
2022-09-14T09:11:53.068Z,11.07
2022-09-14T09:12:59.267Z,8.57
2022-09-14T09:14:18.737Z,8.90
2022-09-14T09:15:24.999Z,11.02
2022-09-14T09:16:28.508Z,7.07
2022-09-14T09:17:44.872Z,8.82
2022-09-14T09:19:04.993Z,6.78
2022-09-14T09:20:20.289Z,10.35
2022-09-14T09:21:30.415Z,6.93
2022-09-14T09:22:44.809Z,7.43
2022-09-14T09:23:47.388Z,9.40
2022-09-14T09:24:54.607Z,8.77
2022-09-14T09:26:21.154Z,6.22
2022-09-14T09:27:25.245Z,8.18
2022-09-14T09:28:28.868Z,8.23
2022-09-14T09:29:31.397Z,6.72
2022-09-14T09:30:47.009Z,10.05
2022-09-14T09:31:53.441Z,5.20
2022-09-14T09:33:28.329Z,8.02
2022-09-14T09:34:42.421Z,9.85
2022-09-14T09:35:52.268Z,7.75
2022-09-14T09:37:00.826Z,5.15
2022-09-14T09:38:12.968Z,8.07
2022-09-14T09:39:16.348Z,6.60
2022-09-14T09:40:36.135Z,7.93
2022-09-14T09:41:52.989Z,6.22
2022-09-14T09:43:33.354Z,4.90
2022-09-14T09:45:13.465Z,4.53
2022-09-14T09:46:15.869Z,6.07
2022-09-14T09:47:26.738Z,12.02
2022-09-14T09:48:38.756Z,4.97
2022-09-14T09:49:41.275Z,5.72
2022-09-14T09:51:00.142Z,5.80
2022-09-14T09:52:13.581Z,4.53
2022-09-14T09:53:17.303Z,4.57
2022-09-14T09:54:31.094Z,4.78
2022-09-14T09:55:38.854Z,6.78
2022-09-14T09:56:56.633Z,5.78
2022-09-14T09:58:22.992Z,6.20
2022-09-14T09:59:38.564Z,5.10
2022-09-14T10:00:40.917Z,4.25
2022-09-14T10:01:43.356Z,7.75
2022-09-14T10:02:45.753Z,8.00
2022-09-14T10:04:16.931Z,8.65
2022-09-14T10:05:23.172Z,7.57
2022-09-14T10:06:25.435Z,4.50
2022-09-14T10:07:30.727Z,7.53
2022-09-14T10:08:39.317Z,5.85
2022-09-14T10:09:41.545Z,5.97
2022-09-14T10:10:44.607Z,5.47
2022-09-14T10:11:55.911Z,7.00
2022-09-14T10:12:58.248Z,5.03
2022-09-14T10:14:00.586Z,8.30
2022-09-14T10:15:08.385Z,6.30
2022-09-14T10:16:15.587Z,5.03
2022-09-14T10:17:20.296Z,5.03
2022-09-14T10:18:30.359Z,6.35
2022-09-14T10:19:33.340Z,5.40
2022-09-14T10:20:38.539Z,6.10
2022-09-14T10:22:04.311Z,8.63
2022-09-14T10:23:24.035Z,4.85
2022-09-14T10:24:27.305Z,10.45
2022-09-14T10:25:29.557Z,7.50
2022-09-14T10:26:35.795Z,9.35
2022-09-14T10:27:52.996Z,4.03
2022-09-14T10:29:25.018Z,5.30
2022-09-14T10:30:49.192Z,5.13
2022-09-14T10:31:53.259Z,5.40
2022-09-14T10:32:59.430Z,9.82
2022-09-14T10:34:01.659Z,9.60
2022-09-14T10:35:12.614Z,5.38
2022-09-14T10:36:17.396Z,10.18
2022-09-14T10:37:37.931Z,6.93
2022-09-14T10:38:45.928Z,6.45
2022-09-14T10:40:16.846Z,9.00
2022-09-14T10:41:26.149Z,3.92
2022-09-14T10:42:42.836Z,8.18
2022-09-14T10:44:10.443Z,5.38
2022-09-14T10:45:46.716Z,6.03
2022-09-14T10:47:12.497Z,6.47
2022-09-14T10:48:35.534Z,3.88
2022-09-14T10:50:02.002Z,5.97
2022-09-14T10:51:26.394Z,6.68
2022-09-14T10:52:50.154Z,6.05
2022-09-14T10:54:10.906Z,4.65
2022-09-14T10:55:35.199Z,6.68
2022-09-14T10:56:59.552Z,8.88
2022-09-14T10:58:24.657Z,5.43
2022-09-14T10:59:53.133Z,6.28
2022-09-14T11:01:21.136Z,10.52
2022-09-14T11:02:42.037Z,4.80
2022-09-14T11:04:08.241Z,5.25
2022-09-14T11:05:10.541Z,5.80
2022-09-14T11:06:21.582Z,7.07
2022-09-14T11:07:51.537Z,7.07
2022-09-14T11:09:18.315Z,5.10
2022-09-14T11:10:38.136Z,7.30
2022-09-14T11:11:40.335Z,4.70
2022-09-14T11:13:04.092Z,6.45
2022-09-14T11:14:33.970Z,5.63
2022-09-14T11:15:55.647Z,5.60
2022-09-14T11:17:16.410Z,6.13
2022-09-14T11:18:27.440Z,5.88
2022-09-14T11:20:09.053Z,9.38
2022-09-14T11:21:19.042Z,6.57
2022-09-14T11:22:21.190Z,7.93
2022-09-14T11:23:36.556Z,7.82
2022-09-14T11:24:59.336Z,6.75
2022-09-14T11:27:45.747Z,6.53
2022-09-14T11:29:13.858Z,6.85
2022-09-14T11:30:19.815Z,7.97
2022-09-14T11:31:28.149Z,5.45
2022-09-14T11:32:39.641Z,6.72
2022-09-14T11:34:00.549Z,13.43
2022-09-14T11:35:18.062Z,9.70
2022-09-14T11:36:27.995Z,5.20
2022-09-14T11:37:58.452Z,7.43
2022-09-14T11:39:13.226Z,8.20
2022-09-14T11:40:18.455Z,6.20
2022-09-14T11:41:26.620Z,6.72
2022-09-14T11:42:35.690Z,5.97
2022-09-14T11:43:37.928Z,11.85
2022-09-14T11:44:42.491Z,5.57
2022-09-14T11:46:01.209Z,6.43
2022-09-14T11:47:12.923Z,7.75
2022-09-14T11:48:43.054Z,7.15
2022-09-14T11:50:01.953Z,6.97
2022-09-14T11:51:17.123Z,6.53
2022-09-14T11:52:22.640Z,7.30
2022-09-14T11:53:26.179Z,5.30
2022-09-14T11:54:28.910Z,3.67
2022-09-14T11:55:31.856Z,4.68
2022-09-14T11:56:34.578Z,7.90
2022-09-14T11:57:37.409Z,6.07
2022-09-14T11:58:39.767Z,6.80
2022-09-14T11:59:41.999Z,3.60
2022-09-14T12:01:03.234Z,4.63
2022-09-14T12:02:23.806Z,4.18
2022-09-14T12:03:47.473Z,4.32
2022-09-14T12:05:05.568Z,4.90
2022-09-14T12:06:35.646Z,6.38
2022-09-14T12:07:42.225Z,5.93
2022-09-14T12:08:44.687Z,4.43
2022-09-14T12:09:46.993Z,5.75
2022-09-14T12:11:07.630Z,6.20
2022-09-14T12:12:29.301Z,7.03
2022-09-14T12:13:32.172Z,6.03
2022-09-14T12:14:36.559Z,4.75
2022-09-14T12:15:41.008Z,4.82
2022-09-14T12:17:13.036Z,5.18
2022-09-14T12:18:27.901Z,8.57
2022-09-14T12:19:31.292Z,5.78
2022-09-14T12:20:52.781Z,4.40
2022-09-14T12:21:55.144Z,4.70
2022-09-14T12:23:24.727Z,8.15
2022-09-14T12:24:27.044Z,3.20
2022-09-14T12:25:29.351Z,4.35
2022-09-14T12:26:34.930Z,4.47
2022-09-14T12:27:40.612Z,7.47
2022-09-14T12:28:48.662Z,7.00
2022-09-14T12:29:51.090Z,8.68
2022-09-14T12:30:53.537Z,6.28
2022-09-14T12:31:55.800Z,8.85
2022-09-14T12:32:58.042Z,5.43
2022-09-14T12:34:06.239Z,5.60
2022-09-14T12:35:36.606Z,6.95
2022-09-14T12:36:38.813Z,5.85
2022-09-14T12:37:41.241Z,5.63
2022-09-14T12:39:19.038Z,7.95
2022-09-14T12:40:21.355Z,4.50
2022-09-14T12:41:24.128Z,6.63
2022-09-14T12:42:32.240Z,7.03
2022-09-14T12:43:37.438Z,8.90
2022-09-14T12:44:42.099Z,6.45
2022-09-14T12:45:52.269Z,6.78
2022-09-14T12:46:54.657Z,7.35
2022-09-14T12:47:56.948Z,4.95
2022-09-14T12:49:14.546Z,15.43
2022-09-14T12:50:20.411Z,9.10
2022-09-14T12:51:32.462Z,7.07
2022-09-14T12:52:52.530Z,8.23
2022-09-14T12:54:03.432Z,3.75
2022-09-14T12:55:21.201Z,6.88
2022-09-14T12:56:52.868Z,7.10
2022-09-14T12:58:22.913Z,7.78
2022-09-14T12:59:34.088Z,10.05
2022-09-14T13:00:59.018Z,5.60
2022-09-14T13:02:19.367Z,4.10
2022-09-14T13:03:36.633Z,5.10
2022-09-14T13:04:41.887Z,7.57
2022-09-14T13:05:45.519Z,5.10
2022-09-14T13:06:48.674Z,7.13
2022-09-14T13:07:52.022Z,9.32
2022-09-14T13:08:58.041Z,7.78
2022-09-14T13:10:03.122Z,10.65
2022-09-14T13:11:06.837Z,8.85
2022-09-14T13:12:11.539Z,5.60
2022-09-14T13:13:20.832Z,6.57
2022-09-14T13:14:26.532Z,4.32
2022-09-14T13:15:33.267Z,9.98
2022-09-14T13:16:47.610Z,6.57
2022-09-14T13:18:18.779Z,6.15
2022-09-14T13:19:26.763Z,3.72
2022-09-14T13:20:31.362Z,3.17
2022-09-14T13:21:33.618Z,4.88
2022-09-14T13:22:42.645Z,4.78
2022-09-14T13:23:45.081Z,4.53
2022-09-14T13:24:48.428Z,3.88
2022-09-14T13:25:51.012Z,12.40
2022-09-14T13:26:56.114Z,11.02
2022-09-14T13:28:01.261Z,6.13
2022-09-14T13:29:07.957Z,5.30
2022-09-14T13:30:10.304Z,8.85
2022-09-14T13:31:31.888Z,4.45
2022-09-14T13:32:38.972Z,5.22
2022-09-14T13:33:48.102Z,4.68
2022-09-14T13:34:50.516Z,3.92
2022-09-14T13:35:59.099Z,5.93
2022-09-14T13:37:02.570Z,7.70
2022-09-14T13:38:15.368Z,7.00
2022-09-14T13:39:23.995Z,17.58
2022-09-14T13:40:29.864Z,16.30
2022-09-14T13:41:33.083Z,9.30
2022-09-14T13:42:35.646Z,10.85
2022-09-14T13:43:38.557Z,3.55
2022-09-14T13:44:45.810Z,11.77
2022-09-14T13:45:49.616Z,5.10
2022-09-14T13:46:53.104Z,4.40
2022-09-14T13:47:55.943Z,5.15
2022-09-14T13:48:58.869Z,5.63
2022-09-14T13:50:01.227Z,4.22
2022-09-14T13:51:05.221Z,11.55
2022-09-14T13:52:22.004Z,11.05
2022-09-14T13:53:39.024Z,2.80
2022-09-14T13:54:41.268Z,4.07
2022-09-14T13:55:44.771Z,4.75
2022-09-14T13:57:06.991Z,6.90
2022-09-14T13:58:09.209Z,6.97
2022-09-14T13:59:21.468Z,27.58
2022-09-14T14:00:23.855Z,7.72
2022-09-14T14:01:28.381Z,7.22
2022-09-14T14:02:34.055Z,2.72
2022-09-14T14:03:58.268Z,9.00
2022-09-14T14:05:00.701Z,5.38
2022-09-14T14:06:25.128Z,10.15
2022-09-14T14:07:33.421Z,7.80
2022-09-14T14:08:38.145Z,4.07
2022-09-14T14:09:43.840Z,5.68
2022-09-14T14:10:49.928Z,1.58
2022-09-14T14:11:55.046Z,4.10
2022-09-14T14:12:57.946Z,4.22
2022-09-14T14:14:13.536Z,7.53
2022-09-14T14:15:18.481Z,4.50
2022-09-14T14:16:26.564Z,4.55
2022-09-14T14:17:28.739Z,3.03
2022-09-14T14:18:36.890Z,2.40
2022-09-14T14:19:43.612Z,4.85
2022-09-14T14:20:46.015Z,3.55
2022-09-14T14:21:49.376Z,6.45
2022-09-14T14:22:58.569Z,18.50
2022-09-14T14:24:28.245Z,3.60
2022-09-14T14:25:40.997Z,5.45
2022-09-14T14:26:49.732Z,6.20
2022-09-14T14:28:00.444Z,12.10
2022-09-14T14:29:09.756Z,3.00
2022-09-14T14:30:18.572Z,4.15
2022-09-14T14:31:23.056Z,10.68
2022-09-14T14:32:25.501Z,3.17
2022-09-14T14:33:28.317Z,4.47
2022-09-14T14:34:30.519Z,3.85
2022-09-14T14:35:32.853Z,12.65
2022-09-14T14:36:35.805Z,5.43
2022-09-14T14:37:38.031Z,13.85
2022-09-14T14:38:44.352Z,3.15
2022-09-14T14:39:49.675Z,5.93
2022-09-14T14:40:55.078Z,3.17
2022-09-14T14:41:57.860Z,8.55
2022-09-14T14:43:03.411Z,4.68
2022-09-14T14:44:10.067Z,10.35